Time;durP1;ratioP1;P1;durP2;ratioP2;P2;SDS_P1;SDS_P2;PMS_P1;PMS_P2;Temp;Humidity;BMP_temperature;BMP_pressure;BME280_temperature;BME280_humidity;BME280_pressure;Samples;Min_cycle;Max_cycle;Signal;HPM_P1;HPM_P2
2022/04/08 00:00:57;;;;;;;2.93;0.60;;;;;;;5.36;86.68;98322.91;6048645;28;20405;-69
2022/04/08 00:03:53;;;;;;;2.55;0.70;;;;;;;5.35;87.97;98316.81;6048656;28;20298;-69
2022/04/08 00:06:49;;;;;;;2.72;1.15;;;;;;;5.25;88.84;98325.91;6049624;28;20489;-69
2022/04/08 00:09:44;;;;;;;3.23;1.20;;;;;;;5.15;89.90;98325.31;6048982;28;20030;-69
2022/04/08 00:12:40;;;;;;;5.32;1.00;;;;;;;5.10;90.80;98338.94;6049150;28;20351;-70
2022/04/08 00:15:38;;;;;;;5.77;1.17;;;;;;;5.11;91.41;98339.78;6050293;28;20037;-71
2022/04/08 00:18:34;;;;;;;3.58;1.08;;;;;;;5.09;91.58;98344.34;6048366;28;20364;-70
2022/04/08 00:21:29;;;;;;;4.35;1.00;;;;;;;5.04;91.18;98354.56;6044842;28;20032;-71
2022/04/08 00:24:25;;;;;;;3.20;0.90;;;;;;;5.07;91.11;98359.47;6047382;28;20069;-71
2022/04/08 00:27:20;;;;;;;3.07;0.90;;;;;;;5.09;90.97;98357.50;6047668;28;20473;-71
2022/04/08 00:30:16;;;;;;;2.63;1.13;;;;;;;5.11;90.10;98358.16;6047175;28;20059;-70
2022/04/08 00:33:12;;;;;;;6.90;0.90;;;;;;;5.08;89.83;98361.13;6047773;28;20293;-70
2022/04/08 00:36:07;;;;;;;5.50;0.90;;;;;;;5.06;89.74;98368.34;6048914;28;20040;-71
2022/04/08 00:39:03;;;;;;;4.23;0.80;;;;;;;5.05;89.01;98371.97;6049256;28;20382;-70
2022/04/08 00:42:00;;;;;;;2.67;0.85;;;;;;;5.10;88.78;98385.41;6043067;28;20036;-71
2022/04/08 00:44:57;;;;;;;2.95;0.80;;;;;;;5.03;88.38;98372.13;6045928;28;20429;-70
2022/04/08 00:47:52;;;;;;;3.17;0.50;;;;;;;5.04;88.38;98386.91;6048982;28;20088;-71
2022/04/08 00:50:48;;;;;;;6.87;0.77;;;;;;;5.02;87.65;98388.06;6047275;28;20046;-71
2022/04/08 00:53:45;;;;;;;2.27;0.80;;;;;;;4.96;87.33;98391.34;6048785;28;20073;-72
2022/04/08 00:56:40;;;;;;;1.23;0.60;;;;;;;5.00;87.08;98395.28;6048701;28;20276;-72
2022/04/08 00:59:35;;;;;;;1.50;0.60;;;;;;;5.06;86.93;98411.19;6048646;28;20049;-71
2022/04/08 01:02:31;;;;;;;2.67;0.60;;;;;;;5.07;86.75;98412.00;6046960;28;20580;-71
2022/04/08 01:05:26;;;;;;;2.25;0.50;;;;;;;5.06;85.73;98421.69;6048649;28;20026;-72
2022/04/08 01:08:22;;;;;;;2.55;0.40;;;;;;;5.08;86.23;98430.22;6047989;28;20508;-72
2022/04/08 01:11:17;;;;;;;1.33;0.60;;;;;;;5.23;84.98;98438.22;6046252;28;20033;-71
2022/04/08 01:14:14;;;;;;;1.60;0.63;;;;;;;5.35;84.60;98439.53;6045845;28;20044;-72
2022/04/08 01:17:09;;;;;;;2.20;0.50;;;;;;;5.39;84.50;98440.81;6042148;28;20034;-72
2022/04/08 01:20:05;;;;;;;2.13;0.50;;;;;;;5.33;86.02;98462.50;6042713;28;20033;-72
2022/04/08 01:23:00;;;;;;;2.90;0.93;;;;;;;5.21;87.37;98451.53;6045247;28;20481;-70
2022/04/08 01:25:56;;;;;;;2.80;0.80;;;;;;;5.13;88.61;98461.25;6051466;28;20049;-70
2022/04/08 01:28:52;;;;;;;1.93;0.70;;;;;;;5.05;89.12;98469.13;6052524;28;20695;-72
2022/04/08 01:31:47;;;;;;;3.55;0.90;;;;;;;5.04;89.32;98475.38;6051686;28;20048;-72
2022/04/08 01:34:44;;;;;;;1.43;0.80;;;;;;;4.99;90.39;98475.03;6053022;28;20385;-72
2022/04/08 01:37:39;;;;;;;2.97;1.00;;;;;;;5.00;90.47;98479.31;6053475;28;20672;-71
2022/04/08 01:40:35;;;;;;;5.57;1.00;;;;;;;5.07;91.25;98490.78;6052840;28;20034;-70
2022/04/08 01:43:30;;;;;;;3.33;0.60;;;;;;;5.12;90.70;98491.94;6051833;28;20030;-71
2022/04/08 01:46:26;;;;;;;2.23;1.00;;;;;;;5.14;90.39;98505.72;6052836;28;20054;-71
2022/04/08 01:49:21;;;;;;;5.30;0.93;;;;;;;5.14;90.03;98507.53;6052432;28;20108;-71
2022/04/08 01:52:16;;;;;;;4.33;1.10;;;;;;;5.18;89.56;98514.94;6052140;28;20392;-71
2022/04/08 01:55:12;;;;;;;4.10;0.90;;;;;;;5.22;89.89;98525.91;6052410;28;20268;-71
2022/04/08 01:58:07;;;;;;;2.13;0.83;;;;;;;5.26;89.50;98525.41;6051526;28;20083;-72
2022/04/08 02:01:03;;;;;;;3.13;0.90;;;;;;;5.23;88.73;98527.56;6051881;28;20040;-72
2022/04/08 02:03:58;;;;;;;1.80;0.65;;;;;;;5.14;88.10;98539.88;6052704;28;20050;-72
2022/04/08 02:06:53;;;;;;;6.00;1.03;;;;;;;5.09;88.83;98536.09;6052678;28;20034;-71
2022/04/08 02:09:49;;;;;;;2.60;0.90;;;;;;;5.15;88.99;98551.19;6052205;28;20558;-72
2022/04/08 02:12:44;;;;;;;3.53;0.83;;;;;;;5.14;88.77;98554.81;6052127;28;20038;-71
2022/04/08 02:15:40;;;;;;;6.10;1.07;;;;;;;5.22;87.61;98568.75;6052233;28;20034;-71
2022/04/08 02:18:35;;;;;;;1.77;0.90;;;;;;;5.23;87.61;98580.09;6052129;28;20038;-72
2022/04/08 02:21:30;;;;;;;4.63;1.23;;;;;;;5.25;86.90;98586.81;6054726;28;20481;-71
2022/04/08 02:24:26;;;;;;;3.83;1.33;;;;;;;5.26;86.43;98599.00;6051101;28;20284;-72
2022/04/08 02:27:23;;;;;;;4.93;1.10;;;;;;;5.19;86.71;98605.06;6044535;28;20069;-71
2022/04/08 02:30:18;;;;;;;5.07;1.30;;;;;;;5.22;86.46;98621.31;6040797;28;20273;-71
2022/04/08 02:33:13;;;;;;;4.57;1.10;;;;;;;5.28;86.15;98630.34;6052733;28;20099;-72
2022/04/08 02:36:09;;;;;;;5.30;1.08;;;;;;;5.27;85.86;98633.97;6049896;28;20037;-71
2022/04/08 02:39:04;;;;;;;5.03;1.10;;;;;;;5.22;86.00;98646.75;6052198;28;20033;-71
2022/04/08 02:42:00;;;;;;;3.00;1.17;;;;;;;5.14;86.43;98650.19;6050937;28;20037;-72
2022/04/08 02:44:55;;;;;;;6.65;1.38;;;;;;;5.03;86.39;98663.63;6051213;28;20026;-71
2022/04/08 02:47:51;;;;;;;2.70;0.68;;;;;;;4.93;86.37;98675.28;6052321;28;20034;-71
2022/04/08 02:50:46;;;;;;;3.63;0.80;;;;;;;4.81;86.25;98670.31;6048821;28;20564;-72
2022/04/08 02:53:41;;;;;;;5.00;0.80;;;;;;;4.71;86.91;98663.56;6051771;28;20308;-71
2022/04/08 02:56:39;;;;;;;3.23;1.00;;;;;;;4.73;86.23;98686.03;6051403;28;20456;-72
2022/04/08 02:59:34;;;;;;;3.90;1.02;;;;;;;4.68;86.36;98701.44;6051265;28;20049;-71
2022/04/08 03:02:29;;;;;;;2.57;0.80;;;;;;;4.62;86.12;98699.44;6048788;28;20421;-71
2022/04/08 03:05:24;;;;;;;4.33;1.10;;;;;;;4.55;86.02;98705.50;6048857;28;20296;-71
2022/04/08 03:08:20;;;;;;;2.43;0.90;;;;;;;4.46;87.12;98717.75;6049319;28;20422;-71
2022/04/08 03:11:16;;;;;;;2.55;0.60;;;;;;;4.41;87.14;98730.53;6048393;28;20042;-72
2022/04/08 03:14:11;;;;;;;3.27;1.83;;;;;;;4.39;88.21;98722.00;6049392;28;20041;-72
2022/04/08 03:17:06;;;;;;;5.27;0.90;;;;;;;4.40;88.39;98728.06;6047584;28;20030;-72
2022/04/08 03:20:03;;;;;;;3.42;1.00;;;;;;;4.44;89.39;98742.50;6050280;28;20030;-72
2022/04/08 03:22:58;;;;;;;3.40;0.80;;;;;;;4.38;88.50;98730.00;6050432;28;20093;-73
2022/04/08 03:25:53;;;;;;;4.57;1.60;;;;;;;4.38;88.95;98741.31;6050804;28;20038;-72
2022/04/08 03:28:49;;;;;;;7.33;1.30;;;;;;;4.34;89.37;98747.88;6051032;28;20156;-72
2022/04/08 03:31:44;;;;;;;3.58;0.80;;;;;;;4.34;89.71;98750.50;6049693;28;20280;-72
2022/04/08 03:34:39;;;;;;;4.27;1.43;;;;;;;4.39;90.31;98776.25;6050739;28;20091;-73
2022/04/08 03:37:34;;;;;;;2.83;1.23;;;;;;;4.42;90.92;98770.72;6051540;28;20492;-72
2022/04/08 03:40:31;;;;;;;5.13;1.13;;;;;;;4.36;90.24;98764.28;6049610;28;20547;-71
2022/04/08 03:43:28;;;;;;;3.33;0.82;;;;;;;4.37;89.28;98778.22;6050696;28;20034;-72
2022/04/08 03:46:23;;;;;;;2.47;0.70;;;;;;;4.25;88.29;98766.31;6049198;28;20113;-70
2022/04/08 03:49:21;;;;;;;3.80;1.15;;;;;;;4.20;87.96;98791.22;6046140;28;20377;-71
2022/04/08 03:52:16;;;;;;;5.85;1.27;;;;;;;4.19;88.42;98788.75;6050336;28;20042;-71
2022/04/08 03:55:11;;;;;;;2.77;1.03;;;;;;;4.18;88.77;98787.91;6049565;28;20392;-71
2022/04/08 03:58:09;;;;;;;3.47;1.15;;;;;;;4.13;88.40;98790.19;6049632;28;20430;-71
2022/04/08 04:01:04;;;;;;;4.60;1.10;;;;;;;4.18;88.66;98787.13;6049746;28;20026;-71
2022/04/08 04:03:59;;;;;;;2.30;1.50;;;;;;;4.22;88.54;98791.06;6050205;28;20377;-72
2022/04/08 04:06:55;;;;;;;5.47;1.20;;;;;;;4.26;87.69;98794.22;6050609;28;20058;-72
2022/04/08 04:09:50;;;;;;;3.67;1.17;;;;;;;4.33;87.87;98788.19;6049147;28;20045;-72
2022/04/08 04:12:45;;;;;;;8.43;1.50;;;;;;;4.36;86.88;98795.75;6048642;28;20546;-71
2022/04/08 04:15:41;;;;;;;7.23;1.37;;;;;;;4.45;86.79;98804.50;6045431;28;20501;-71
2022/04/08 04:18:36;;;;;;;2.63;1.00;;;;;;;4.52;87.06;98803.72;6048505;28;20041;-72
2022/04/08 04:21:32;;;;;;;3.63;1.37;;;;;;;4.45;88.01;98810.59;6049859;28;20030;-72
2022/04/08 04:24:28;;;;;;;1.67;1.02;;;;;;;4.43;89.34;98814.34;6046836;28;20481;-72
2022/04/08 04:27:23;;;;;;;3.83;0.90;;;;;;;4.37;88.90;98826.28;6049793;28;20037;-71
2022/04/08 04:30:18;;;;;;;3.87;1.43;;;;;;;4.31;88.64;98839.16;6048144;28;20065;-70
2022/04/08 04:33:14;;;;;;;3.70;1.30;;;;;;;4.24;89.89;98854.69;6049369;28;20287;-73
2022/04/08 04:36:11;;;;;;;3.70;1.27;;;;;;;4.16;90.54;98884.28;6049424;28;20030;-74
2022/04/08 04:39:06;;;;;;;3.42;1.63;;;;;;;4.05;91.71;98902.88;6040771;28;20124;-73
2022/04/08 04:42:02;;;;;;;4.03;1.10;;;;;;;3.85;92.27;98921.53;6049354;28;20068;-72
2022/04/08 04:44:57;;;;;;;2.15;0.50;;;;;;;3.43;93.04;98923.81;6049497;28;20053;-72
2022/04/08 04:47:53;;;;;;;2.40;0.53;;;;;;;3.24;92.74;98927.34;6049845;28;20030;-73
2022/04/08 04:50:49;;;;;;;3.30;0.90;;;;;;;3.18;93.20;98954.09;6048374;28;20034;-72
2022/04/08 04:53:44;;;;;;;2.03;1.00;;;;;;;3.02;92.84;98959.09;6048782;28;20037;-73
2022/04/08 04:56:40;;;;;;;1.47;0.87;;;;;;;2.79;93.74;98978.72;6048200;28;20762;-71
2022/04/08 04:59:35;;;;;;;7.07;0.70;;;;;;;2.70;94.39;98980.38;6047533;28;20036;-70
2022/04/08 05:02:31;;;;;;;1.08;0.70;;;;;;;2.55;95.18;98997.47;6048949;28;20736;-71
2022/04/08 05:05:26;;;;;;;1.13;0.50;;;;;;;2.49;94.52;98986.72;6041751;28;20045;-72
2022/04/08 05:08:22;;;;;;;3.08;1.17;;;;;;;2.50;94.96;98993.63;6043576;28;20413;-70
2022/04/08 05:11:17;;;;;;;2.87;0.70;;;;;;;2.50;95.30;98998.84;6043148;28;20092;-72
2022/04/08 05:14:12;;;;;;;1.52;0.70;;;;;;;2.44;95.05;98991.53;6048839;28;20033;-71
2022/04/08 05:17:08;;;;;;;10.80;1.23;;;;;;;2.47;94.53;98989.50;6049227;28;20030;-73
2022/04/08 05:20:05;;;;;;;2.87;0.80;;;;;;;2.51;94.49;98990.03;6047970;28;20120;-71
2022/04/08 05:23:00;;;;;;;2.42;0.85;;;;;;;2.57;94.86;98984.25;6048280;28;20034;-72
2022/04/08 05:25:56;;;;;;;2.30;1.17;;;;;;;2.62;95.36;98992.50;6049268;28;20128;-73
2022/04/08 05:28:51;;;;;;;2.45;1.30;;;;;;;2.66;95.42;98996.50;6048909;28;20026;-72
2022/04/08 05:31:47;;;;;;;2.13;1.40;;;;;;;2.70;94.89;99000.47;6048785;28;20037;-74
2022/04/08 05:34:42;;;;;;;4.95;1.02;;;;;;;2.70;95.05;99000.47;6047888;28;20033;-73
2022/04/08 05:37:39;;;;;;;2.27;1.03;;;;;;;2.71;94.79;98999.53;6048693;28;20608;-74
2022/04/08 05:40:34;;;;;;;2.35;0.90;;;;;;;2.74;94.78;99012.34;6047931;28;20285;-72
2022/04/08 05:43:30;;;;;;;3.50;1.00;;;;;;;2.78;94.95;99019.78;6046939;28;20208;-73
2022/04/08 05:46:25;;;;;;;6.53;1.17;;;;;;;2.99;94.20;99022.22;6046737;28;20283;-72
2022/04/08 05:49:20;;;;;;;3.93;0.93;;;;;;;3.09;93.83;99027.44;6046931;28;20038;-73
2022/04/08 05:52:16;;;;;;;2.08;1.00;;;;;;;3.34;93.23;99034.72;6047602;28;20112;-71
2022/04/08 05:55:11;;;;;;;2.87;0.70;;;;;;;3.47;90.88;99038.69;6048134;28;20109;-71
2022/04/08 05:58:06;;;;;;;2.00;0.90;;;;;;;3.52;89.91;99043.47;6048950;28;20440;-71
2022/04/08 06:01:02;;;;;;;1.53;0.87;;;;;;;3.66;89.64;99055.28;6041523;28;20416;-71
2022/04/08 06:03:57;;;;;;;4.10;0.70;;;;;;;3.66;89.13;99063.16;6047163;28;20368;-71
2022/04/08 06:06:54;;;;;;;3.00;0.70;;;;;;;3.85;88.47;99057.84;6050908;28;20121;-71
2022/04/08 06:09:49;;;;;;;1.20;0.60;;;;;;;3.99;87.71;99062.63;6050068;28;20088;-71
2022/04/08 06:12:46;;;;;;;1.80;0.60;;;;;;;4.14;86.67;99061.16;6049357;28;20430;-71
2022/04/08 06:15:41;;;;;;;1.75;0.52;;;;;;;4.20;85.84;99068.44;6049850;28;20628;-71
2022/04/08 06:18:36;;;;;;;2.57;0.70;;;;;;;4.46;85.20;99074.63;6050626;28;20077;-72
2022/04/08 06:21:32;;;;;;;2.30;0.60;;;;;;;4.36;85.57;99079.13;6051227;28;20038;-72
2022/04/08 06:24:27;;;;;;;1.97;0.73;;;;;;;4.17;85.68;99085.31;6051656;28;20056;-71
2022/04/08 06:27:22;;;;;;;2.40;0.70;;;;;;;4.14;86.20;99079.50;6051806;28;20041;-72
2022/04/08 06:30:18;;;;;;;4.43;0.93;;;;;;;4.15;86.77;99091.66;6051489;28;20290;-73
2022/04/08 06:33:13;;;;;;;2.70;0.83;;;;;;;4.07;87.07;99099.44;6044198;28;20034;-71
2022/04/08 06:36:08;;;;;;;2.77;1.23;;;;;;;3.71;86.37;99095.00;6048835;28;20440;-71
2022/04/08 06:39:04;;;;;;;6.70;0.90;;;;;;;3.46;86.63;99107.75;6049806;28;20046;-73
2022/04/08 06:41:59;;;;;;;4.50;1.00;;;;;;;3.30;87.60;99098.81;6050802;28;20045;-73
2022/04/08 06:44:54;;;;;;;3.13;1.00;;;;;;;3.19;87.39;99109.44;6044582;28;20465;-73
2022/04/08 06:47:50;;;;;;;4.47;1.08;;;;;;;3.20;88.22;99106.69;6051852;28;20040;-72
2022/04/08 06:50:45;;;;;;;6.75;1.00;;;;;;;3.35;88.52;99107.06;6051222;28;20038;-73
2022/04/08 06:53:40;;;;;;;5.47;1.20;;;;;;;3.37;88.04;99105.97;6050802;28;20370;-73
2022/04/08 06:56:36;;;;;;;3.20;1.10;;;;;;;3.77;87.96;99107.53;6050728;28;20045;-72
2022/04/08 06:59:31;;;;;;;7.97;1.60;;;;;;;4.02;86.17;99107.72;6051113;28;20030;-72
2022/04/08 07:02:26;;;;;;;2.97;1.00;;;;;;;4.45;85.55;99108.91;6050717;28;20041;-72
2022/04/08 07:05:24;;;;;;;2.43;0.80;;;;;;;4.76;82.47;99108.41;6050341;28;20117;-72
2022/04/08 07:08:20;;;;;;;4.57;0.63;;;;;;;4.89;81.16;99102.81;6051360;28;20444;-73
2022/04/08 07:11:15;;;;;;;3.87;0.93;;;;;;;5.03;81.37;99114.59;6050009;28;20029;-72
2022/04/08 07:14:10;;;;;;;4.50;1.03;;;;;;;5.01;80.31;99106.03;6051490;28;20025;-73
2022/04/08 07:17:06;;;;;;;2.67;0.93;;;;;;;5.06;80.75;99101.16;6052992;28;20782;-72
2022/04/08 07:20:02;;;;;;;4.20;1.10;;;;;;;4.74;81.12;99123.50;6050016;28;20022;-72
2022/04/08 07:23:01;;;;;;;3.25;0.88;;;;;;;4.61;83.43;99140.59;6050192;28;20393;-74
2022/04/08 07:25:57;;;;;;;7.65;1.45;;;;;;;3.89;84.07;99116.88;6049559;28;20033;-71
2022/04/08 07:28:52;;;;;;;6.17;1.23;;;;;;;3.66;86.35;99131.31;6050478;28;20041;-71
2022/04/08 07:31:47;;;;;;;4.53;0.93;;;;;;;3.50;87.86;99122.25;6049250;28;21440;-71
2022/04/08 07:34:43;;;;;;;6.38;1.42;;;;;;;3.42;88.04;99137.84;6050741;28;20049;-72
2022/04/08 07:37:38;;;;;;;8.63;0.90;;;;;;;3.60;88.52;99133.53;6053594;28;20037;-70
2022/04/08 07:40:34;;;;;;;6.27;1.33;;;;;;;3.96;88.18;99146.81;6049500;28;20065;-71
2022/04/08 07:43:29;;;;;;;4.63;1.25;;;;;;;4.49;87.25;99129.44;6050173;28;20021;-70
2022/04/08 07:46:24;;;;;;;7.17;1.27;;;;;;;5.08;86.12;99136.00;6050512;28;20448;-72
2022/04/08 07:49:19;;;;;;;3.57;1.17;;;;;;;5.34;84.69;99134.25;6050206;28;20356;-72
2022/04/08 07:52:15;;;;;;;5.30;1.27;;;;;;;5.31;83.07;99142.44;6048822;28;20469;-70
2022/04/08 07:55:11;;;;;;;5.93;1.27;;;;;;;5.17;81.05;99140.31;6042039;28;20072;-72
2022/04/08 07:58:07;;;;;;;5.97;1.63;;;;;;;5.09;81.99;99140.25;6050525;28;20295;-71
2022/04/08 08:01:02;;;;;;;3.37;2.00;;;;;;;5.11;81.47;99133.06;6049191;28;20389;-72
2022/04/08 08:03:57;;;;;;;6.33;1.67;;;;;;;5.07;81.66;99136.94;6050630;28;20026;-71
2022/04/08 08:06:53;;;;;;;5.88;1.75;;;;;;;5.42;81.40;99136.94;6049760;28;20041;-73
2022/04/08 08:09:48;;;;;;;7.23;1.60;;;;;;;5.43;79.09;99131.50;6049967;28;20101;-72
2022/04/08 08:12:43;;;;;;;6.60;1.77;;;;;;;5.56;79.65;99133.75;6049389;28;20044;-72
2022/04/08 08:15:41;;;;;;;7.73;1.70;;;;;;;5.71;78.66;99140.09;6049110;28;20048;-72
2022/04/08 08:18:36;;;;;;;4.22;1.00;;;;;;;5.68;78.30;99135.16;6049190;28;20038;-72
2022/04/08 08:21:31;;;;;;;7.77;1.60;;;;;;;5.82;78.21;99131.97;6047914;28;20178;-72
2022/04/08 08:24:26;;;;;;;10.57;1.83;;;;;;;6.13;78.05;99142.03;6049606;28;20034;-71
2022/04/08 08:27:22;;;;;;;3.23;1.10;;;;;;;6.02;76.04;99139.69;6049406;28;20026;-72
2022/04/08 08:30:18;;;;;;;4.63;1.67;;;;;;;5.65;76.14;99147.81;6048184;28;20065;-72
2022/04/08 08:33:13;;;;;;;4.82;1.38;;;;;;;5.92;77.48;99140.59;6047063;28;20116;-72
2022/04/08 08:36:08;;;;;;;5.85;1.30;;;;;;;6.07;76.30;99150.56;6049030;28;20374;-72
2022/04/08 08:39:04;;;;;;;9.48;1.20;;;;;;;6.38;74.96;99125.38;6049413;28;20060;-72
2022/04/08 08:41:59;;;;;;;3.43;1.07;;;;;;;6.91;73.10;99140.84;6049181;28;20120;-72
2022/04/08 08:44:54;;;;;;;7.45;1.52;;;;;;;7.08;71.90;99137.28;6047984;28;20285;-72
2022/04/08 08:47:52;;;;;;;2.70;0.90;;;;;;;7.14;69.43;99134.00;6049445;28;20110;-71
2022/04/08 08:50:48;;;;;;;6.50;1.73;;;;;;;7.02;70.34;99138.75;6047910;28;20121;-71
2022/04/08 08:53:43;;;;;;;4.28;1.10;;;;;;;6.93;69.91;99121.25;6048962;28;20503;-71
2022/04/08 08:56:38;;;;;;;2.23;0.87;;;;;;;6.65;68.46;99140.97;6048994;28;20037;-71
2022/04/08 08:59:36;;;;;;;3.70;0.77;;;;;;;7.11;70.78;99135.13;6048142;28;20041;-72
2022/04/08 09:02:31;;;;;;;6.57;1.30;;;;;;;7.48;69.78;99125.91;6047168;28;20497;-72
2022/04/08 09:05:28;;;;;;;4.90;0.93;;;;;;;7.54;66.23;99131.38;6047899;28;20036;-72
2022/04/08 09:08:32;;;;;;;2.60;0.93;;;;;;;7.63;65.50;99135.66;6048754;28;20040;-71
2022/04/08 09:11:27;;;;;;;3.20;1.10;;;;;;;8.01;66.55;99120.91;6045398;28;20040;-72
2022/04/08 09:14:27;;;;;;;5.38;1.13;;;;;;;8.23;65.27;99122.00;6045080;28;20037;-72
2022/04/08 09:17:24;;;;;;;8.45;1.13;;;;;;;8.25;63.43;99136.69;6046336;28;20080;-71
2022/04/08 09:20:20;;;;;;;3.65;1.40;;;;;;;7.91;63.34;99128.16;6046329;28;20110;-71
2022/04/08 09:23:19;;;;;;;5.60;1.50;;;;;;;8.08;64.17;99132.44;6048631;28;20029;-72
2022/04/08 09:26:15;;;;;;;6.13;1.23;;;;;;;7.75;61.81;99117.66;6048529;28;20092;-70
2022/04/08 09:29:11;;;;;;;3.42;1.00;;;;;;;7.36;63.51;99128.06;6047603;28;20065;-71
2022/04/08 09:32:10;;;;;;;4.70;1.00;;;;;;;7.13;63.13;99137.59;6047860;28;20041;-70
2022/04/08 09:35:06;;;;;;;3.45;0.88;;;;;;;6.95;64.01;99123.75;6048559;28;20034;-73
2022/04/08 09:38:02;;;;;;;5.68;1.15;;;;;;;6.71;65.00;99137.69;6048761;28;20420;-73
2022/04/08 09:41:03;;;;;;;7.50;1.20;;;;;;;6.68;65.39;99142.44;6050543;28;20473;-71
2022/04/08 09:43:59;;;;;;;8.02;1.17;;;;;;;6.38;66.23;99142.03;6053400;28;20029;-71
2022/04/08 09:46:54;;;;;;;4.47;1.13;;;;;;;6.39;67.04;99142.81;6053898;28;20109;-73
2022/04/08 09:49:50;;;;;;;5.10;1.00;;;;;;;6.33;66.95;99135.56;6053537;28;20088;-72
2022/04/08 09:52:45;;;;;;;5.65;1.30;;;;;;;6.42;66.95;99129.34;6051994;28;20022;-71
2022/04/08 09:55:42;;;;;;;3.78;1.10;;;;;;;6.35;66.37;99133.59;6050482;28;20473;-70
2022/04/08 09:58:40;;;;;;;5.40;1.20;;;;;;;6.64;66.43;99134.03;6051294;28;20033;-71
2022/04/08 10:01:36;;;;;;;6.85;1.50;;;;;;;6.79;65.00;99134.25;6047977;28;20049;-71
2022/04/08 10:04:33;;;;;;;6.57;1.30;;;;;;;6.90;64.80;99126.03;6051064;28;20671;-70
2022/04/08 10:07:29;;;;;;;5.75;1.45;;;;;;;7.15;64.99;99118.00;6048754;28;20514;-71
2022/04/08 10:10:44;;;;;;;4.07;1.50;;;;;;;7.50;64.06;99123.97;6049522;28;20041;-72
2022/04/08 10:13:59;;;;;;;5.63;1.33;;;;;;;7.06;65.63;99118.16;6066789;28;20045;-71
2022/04/08 10:16:55;;;;;;;6.32;1.20;;;;;;;6.86;65.26;99122.06;6051232;28;20040;-71
2022/04/08 10:19:51;;;;;;;6.57;1.30;;;;;;;6.65;67.01;99116.44;6052586;28;20109;-72
2022/04/08 10:22:47;;;;;;;3.22;1.38;;;;;;;6.54;68.22;99113.13;6051749;28;20044;-71
2022/04/08 10:25:48;;;;;;;3.55;1.50;;;;;;;6.50;67.43;99108.31;6052715;28;20446;-71
2022/04/08 10:28:43;;;;;;;;;;;;;;;6.37;70.30;99113.19;6051856;28;20048;-71
2022/04/08 10:31:38;;;;;;;7.53;1.57;;;;;;;6.07;73.95;99118.97;6052050;28;19909;-71
2022/04/08 10:34:34;;;;;;;6.55;2.00;;;;;;;5.82;76.63;99110.91;6050598;28;20081;-72
2022/04/08 10:37:29;;;;;;;5.37;2.00;;;;;;;5.81;78.57;99106.66;6041898;28;20092;-71
2022/04/08 10:40:30;;;;;;;5.80;1.80;;;;;;;6.19;78.84;99104.59;6066804;28;20084;-71
2022/04/08 10:43:26;;;;;;;;;;;;;;;6.33;75.89;99106.63;6056117;28;20037;-72
2022/04/08 10:46:32;;;;;;;6.60;1.92;;;;;;;6.47;76.84;99093.66;6060601;28;20392;-71
2022/04/08 10:49:28;;;;;;;6.32;2.33;;;;;;;6.47;74.83;99096.28;6051681;28;20048;-72
2022/04/08 10:52:26;;;;;;;6.75;1.77;;;;;;;6.54;72.42;99083.31;6048773;28;20030;-71
2022/04/08 10:55:21;;;;;;;5.30;2.15;;;;;;;6.74;72.83;99087.28;6050455;28;20033;-72
2022/04/08 11:01:25;;;;;;;7.20;2.67;;;;;;;7.14;71.63;99095.28;6006703;28;20039;-71
2022/04/08 11:04:21;;;;;;;8.80;3.00;;;;;;;7.23;71.53;99095.28;6003660;28;20045;-71
2022/04/08 11:07:17;;;;;;;6.75;3.10;;;;;;;6.97;70.40;99098.06;6004574;28;20109;-69
2022/04/08 11:10:14;;;;;;;10.10;4.20;;;;;;;6.64;71.30;99086.63;6003845;28;20045;-71
2022/04/08 11:13:12;;;;;;;10.13;5.18;;;;;;;6.46;71.25;99091.19;6004410;28;20776;-70
2022/04/08 11:16:08;;;;;;;14.30;4.63;;;;;;;6.34;71.80;99081.94;6003760;28;20105;-71
2022/04/08 11:19:08;;;;;;;10.50;3.90;;;;;;;6.20;72.24;99082.53;6003749;28;20023;-74
2022/04/08 11:22:10;;;;;;;8.05;3.38;;;;;;;6.12;73.15;99077.22;6003516;28;20089;-72
2022/04/08 11:25:06;;;;;;;12.23;3.95;;;;;;;6.06;73.46;99072.63;6006798;28;20054;-73
2022/04/08 11:28:06;;;;;;;8.77;3.15;;;;;;;6.13;73.56;99073.63;6003977;28;20031;-72
2022/04/08 11:31:02;;;;;;;5.47;2.63;;;;;;;6.20;72.04;99070.19;6000973;28;20465;-72
2022/04/08 11:34:01;;;;;;;6.37;2.53;;;;;;;6.45;71.77;99073.75;6003557;28;20027;-72
2022/04/08 11:36:57;;;;;;;6.13;2.40;;;;;;;7.08;70.68;99069.56;6003919;28;20038;-71
2022/04/08 11:39:59;;;;;;;4.72;1.98;;;;;;;7.43;67.66;99063.13;6003225;28;20459;-72
2022/04/08 11:42:56;;;;;;;7.47;2.40;;;;;;;8.18;65.31;99053.03;6003346;28;20078;-74
2022/04/08 11:45:55;;;;;;;4.40;1.60;;;;;;;8.33;62.07;99044.25;6003075;28;20037;-72
2022/04/08 11:48:50;;;;;;;7.47;1.83;;;;;;;8.54;63.34;99045.44;6003755;28;20169;-73
2022/04/08 11:51:46;;;;;;;6.30;1.60;;;;;;;8.73;61.65;99045.00;6002947;28;20031;-72
2022/04/08 11:54:41;;;;;;;7.07;1.67;;;;;;;8.35;60.47;99036.97;6004300;28;20049;-71
2022/04/08 11:57:38;;;;;;;7.80;1.60;;;;;;;8.35;62.27;99046.72;6003395;28;20777;-71
2022/04/08 12:00:34;;;;;;;5.97;1.50;;;;;;;8.50;61.94;99044.16;6002740;28;20045;-71
2022/04/08 12:03:31;;;;;;;7.13;1.35;;;;;;;8.95;61.02;99041.53;6003806;28;20082;-72
2022/04/08 12:06:40;;;;;;;5.35;1.70;;;;;;;9.01;61.17;99043.47;6003063;28;20446;-71
2022/04/08 12:09:36;;;;;;;3.10;1.20;;;;;;;9.24;60.81;99049.56;6001757;28;20098;-71
2022/04/08 12:12:31;;;;;;;4.93;1.58;;;;;;;9.35;59.25;99030.63;6002078;28;20042;-71
2022/04/08 12:15:27;;;;;;;7.37;1.50;;;;;;;9.56;58.67;99032.59;6002520;28;20089;-71
2022/04/08 12:18:27;;;;;;;5.55;1.42;;;;;;;9.53;57.97;99022.34;6003176;28;20530;-72
2022/04/08 12:21:27;;;;;;;6.97;1.40;;;;;;;9.23;56.54;99018.84;5998786;28;20042;-71
2022/04/08 12:24:22;;;;;;;3.25;1.75;;;;;;;8.84;58.87;99026.91;6000331;28;20517;-70
2022/04/08 12:27:23;;;;;;;2.37;1.03;;;;;;;8.85;58.61;99023.28;6000602;28;20034;-72
2022/04/08 12:30:28;;;;;;;3.97;1.10;;;;;;;9.22;60.18;99019.00;6000436;28;20034;-72
2022/04/08 12:33:23;;;;;;;5.55;1.60;;;;;;;9.14;60.41;99016.44;6000880;28;20433;-71
2022/04/08 12:36:19;;;;;;;6.57;1.80;;;;;;;8.88;60.37;99011.53;6001998;28;20062;-72
2022/04/08 12:39:16;;;;;;;4.28;1.35;;;;;;;8.95;60.12;99010.66;6003146;28;20298;-72
2022/04/08 12:42:11;;;;;;;2.75;1.30;;;;;;;9.05;60.38;99013.03;6002062;28;20392;-71
2022/04/08 12:45:07;;;;;;;3.03;1.50;;;;;;;8.89;59.25;99007.88;6002715;28;20039;-70
2022/04/08 12:48:02;;;;;;;7.47;1.20;;;;;;;8.80;60.57;99003.66;6002714;28;20099;-70
2022/04/08 12:50:57;;;;;;;5.07;1.70;;;;;;;8.53;58.75;99002.38;6001918;28;20367;-71
2022/04/08 12:53:53;;;;;;;7.00;1.40;;;;;;;8.37;59.82;98992.72;6002819;28;20482;-71
2022/04/08 12:56:48;;;;;;;5.82;1.67;;;;;;;8.53;59.62;98981.25;6002463;28;20062;-72
2022/04/08 12:59:43;;;;;;;10.97;1.00;;;;;;;8.85;58.99;98974.88;6002557;28;20039;-70
2022/04/08 13:02:39;;;;;;;3.33;1.17;;;;;;;8.77;56.62;98961.75;6006261;28;20611;-72
2022/04/08 13:05:35;;;;;;;4.22;1.40;;;;;;;8.99;58.38;98955.59;6001094;28;20046;-72
2022/04/08 13:08:30;;;;;;;5.53;1.43;;;;;;;9.06;57.58;98966.28;6002196;28;20039;-72
2022/04/08 13:11:25;;;;;;;5.55;1.45;;;;;;;9.26;56.95;98956.84;6001411;28;20061;-71
2022/04/08 13:14:21;;;;;;;2.93;1.30;;;;;;;9.08;57.25;98956.34;6002328;28;20371;-72
2022/04/08 13:17:16;;;;;;;6.13;1.20;;;;;;;9.26;57.59;98949.72;6007194;28;20376;-71
2022/04/08 13:20:15;;;;;;;5.50;1.30;;;;;;;9.16;55.85;98959.72;6005706;28;20397;-71
2022/04/08 13:23:10;;;;;;;5.38;1.20;;;;;;;8.96;57.41;98950.69;6007002;28;20035;-71
2022/04/08 13:26:06;;;;;;;5.37;1.40;;;;;;;9.07;56.01;98949.41;6006477;28;20097;-72
2022/04/08 13:29:01;;;;;;;3.37;1.40;;;;;;;8.92;56.28;98952.00;6007004;28;20101;-72
2022/04/08 13:31:57;;;;;;;5.25;1.50;;;;;;;9.01;55.89;98936.91;6005261;28;20081;-71
2022/04/08 13:34:53;;;;;;;6.20;1.47;;;;;;;9.04;54.18;98949.78;6005778;28;20034;-72
2022/04/08 13:37:48;;;;;;;2.50;1.40;;;;;;;9.07;54.21;98936.19;6006879;28;20118;-72
2022/04/08 13:40:43;;;;;;;2.53;1.40;;;;;;;8.98;52.89;98933.63;6005543;28;20043;-72
2022/04/08 13:43:39;;;;;;;4.73;1.20;;;;;;;9.05;55.36;98938.19;6006019;28;20046;-71
2022/04/08 13:46:34;;;;;;;5.10;1.38;;;;;;;8.99;54.77;98931.81;6006484;28;20505;-72
2022/04/08 13:49:30;;;;;;;5.33;1.60;;;;;;;9.06;53.96;98943.31;6005271;28;20130;-71
2022/04/08 13:52:25;;;;;;;3.42;1.40;;;;;;;9.17;53.12;98942.88;6003809;28;20045;-72
2022/04/08 13:55:21;;;;;;;6.70;1.65;;;;;;;9.22;51.18;98943.13;6007800;28;20050;-72
2022/04/08 13:58:17;;;;;;;3.55;1.30;;;;;;;9.30;51.10;98927.19;6006134;28;20102;-73
2022/04/08 14:01:12;;;;;;;4.93;2.03;;;;;;;9.18;51.83;98928.66;6006067;28;20022;-73